createdAt,value
2018-09-02T00:00:44.435Z,0.00
2018-09-02T00:01:44.432Z,0.00
2018-09-02T00:02:44.430Z,0.00
2018-09-02T00:03:44.429Z,0.00
2018-09-02T00:04:44.428Z,0.00
2018-09-02T00:05:44.426Z,0.00
2018-09-02T00:06:44.432Z,0.00
2018-09-02T00:07:44.422Z,0.00
2018-09-02T00:08:44.422Z,0.00
2018-09-02T00:09:44.418Z,0.00
2018-09-02T00:10:44.416Z,0.00
2018-09-02T00:11:44.416Z,0.00
2018-09-02T00:12:44.413Z,0.00
2018-09-02T00:13:44.414Z,0.00
2018-09-02T00:14:44.410Z,0.00
2018-09-02T00:15:44.408Z,0.00
2018-09-02T00:16:44.407Z,0.00
2018-09-02T00:17:44.412Z,0.00
2018-09-02T00:18:44.404Z,0.00
2018-09-02T00:19:44.402Z,0.00
2018-09-02T00:20:44.400Z,0.00
2018-09-02T00:21:44.397Z,0.00
2018-09-02T00:22:44.396Z,0.00
2018-09-02T00:23:44.395Z,0.00
2018-09-02T00:24:44.394Z,0.00
2018-09-02T00:25:44.391Z,0.00
2018-09-02T00:26:44.390Z,0.00
2018-09-02T00:27:44.388Z,0.00
2018-09-02T00:28:44.388Z,0.00
2018-09-02T00:29:44.389Z,0.00
2018-09-02T00:30:44.383Z,0.00
2018-09-02T00:31:44.381Z,0.00
2018-09-02T00:32:44.380Z,0.00
2018-09-02T00:33:44.416Z,0.00
2018-09-02T00:34:44.376Z,0.00
2018-09-02T00:35:44.373Z,0.00
2018-09-02T00:36:44.371Z,0.00
2018-09-02T00:37:44.369Z,0.00
2018-09-02T00:38:44.368Z,0.00
2018-09-02T00:39:44.367Z,0.00
2018-09-02T00:40:44.364Z,0.00
2018-09-02T00:41:44.363Z,0.00
2018-09-02T00:42:44.362Z,0.00
2018-09-02T00:43:44.362Z,0.00
2018-09-02T00:44:44.357Z,0.00
2018-09-02T00:45:44.355Z,0.00
2018-09-02T00:46:44.354Z,0.00
2018-09-02T00:47:44.352Z,0.00
2018-09-02T00:48:44.351Z,0.00
2018-09-02T00:49:44.349Z,0.00
2018-09-02T00:50:44.347Z,0.00
2018-09-02T00:51:44.345Z,0.00
2018-09-02T00:52:44.344Z,0.00
2018-09-02T00:53:44.340Z,0.00
2018-09-02T00:54:44.339Z,0.00
2018-09-02T00:55:44.337Z,0.00
2018-09-02T00:56:44.335Z,0.00
2018-09-02T00:57:44.333Z,0.00
2018-09-02T00:58:44.331Z,0.00
2018-09-02T00:59:44.331Z,0.00
2018-09-02T01:00:44.329Z,0.00
2018-09-02T01:01:44.326Z,0.00
2018-09-02T01:02:44.324Z,0.00
2018-09-02T01:03:44.323Z,0.00
2018-09-02T01:04:44.321Z,0.00
2018-09-02T01:05:44.318Z,0.00
2018-09-02T01:06:44.316Z,0.00
2018-09-02T01:07:44.315Z,0.00
2018-09-02T01:08:44.314Z,0.00
2018-09-02T01:09:44.311Z,0.00
2018-09-02T01:10:44.310Z,0.00
2018-09-02T01:11:44.307Z,0.00
2018-09-02T01:12:44.309Z,0.00
2018-09-02T01:13:44.304Z,0.00
2018-09-02T01:14:44.301Z,0.00
2018-09-02T01:15:44.301Z,0.00
2018-09-02T01:16:44.297Z,0.00
2018-09-02T01:17:44.297Z,0.00
2018-09-02T01:18:44.294Z,0.00
2018-09-02T01:19:44.292Z,0.00
2018-09-02T01:20:44.289Z,0.00
2018-09-02T01:21:44.287Z,0.00
2018-09-02T01:22:44.286Z,0.00
2018-09-02T01:23:44.285Z,0.00
2018-09-02T01:24:44.286Z,0.00
2018-09-02T01:25:44.280Z,0.00
2018-09-02T01:26:44.279Z,0.00
2018-09-02T01:27:44.276Z,0.00
2018-09-02T01:28:44.275Z,0.00
2018-09-02T01:29:44.273Z,0.00
2018-09-02T01:30:44.271Z,0.00
2018-09-02T01:31:44.268Z,0.00
2018-09-02T01:32:44.271Z,0.00
2018-09-02T01:33:44.263Z,0.00
2018-09-02T01:34:44.262Z,0.00
2018-09-02T01:35:44.260Z,0.00
2018-09-02T01:36:44.259Z,0.00
2018-09-02T01:37:44.256Z,0.00
2018-09-02T01:38:44.255Z,0.00
2018-09-02T01:39:44.253Z,0.00
2018-09-02T01:40:44.250Z,0.00
2018-09-02T01:41:44.249Z,0.00
2018-09-02T01:42:44.253Z,0.00
2018-09-02T01:43:44.245Z,0.00
2018-09-02T01:44:44.243Z,0.00
2018-09-02T01:45:44.241Z,0.00
2018-09-02T01:46:44.239Z,0.00
2018-09-02T01:47:44.239Z,0.00
2018-09-02T01:48:44.236Z,0.00
2018-09-02T01:49:44.232Z,0.00
2018-09-02T01:50:44.232Z,0.00
2018-09-02T01:51:44.230Z,0.00
2018-09-02T01:52:44.228Z,0.00
2018-09-02T01:53:44.230Z,0.00
2018-09-02T01:54:44.226Z,0.00
2018-09-02T01:55:44.221Z,0.00
2018-09-02T01:56:44.221Z,0.00
2018-09-02T01:57:44.217Z,0.00
2018-09-02T01:58:44.215Z,0.00
2018-09-02T01:59:44.214Z,0.00
2018-09-02T02:00:44.213Z,0.00
2018-09-02T02:01:44.210Z,0.00
2018-09-02T02:02:44.207Z,0.00
2018-09-02T02:03:44.208Z,0.00
2018-09-02T02:04:44.204Z,0.00
2018-09-02T02:05:44.203Z,0.00
2018-09-02T02:06:44.198Z,0.00
2018-09-02T02:07:44.200Z,0.00
2018-09-02T02:08:44.196Z,0.00
2018-09-02T02:09:44.193Z,0.00
2018-09-02T02:10:44.192Z,0.00
2018-09-02T02:11:44.190Z,0.00
2018-09-02T02:12:44.188Z,0.00
2018-09-02T02:13:44.185Z,0.00
2018-09-02T02:14:44.181Z,0.00
2018-09-02T02:15:44.181Z,0.00
2018-09-02T02:16:44.179Z,0.00
2018-09-02T02:17:44.211Z,0.00
2018-09-02T02:18:44.175Z,0.00
2018-09-02T02:19:44.173Z,0.00
2018-09-02T02:20:44.170Z,0.00
2018-09-02T02:21:44.168Z,0.00
2018-09-02T02:22:44.166Z,0.00
2018-09-02T02:23:44.165Z,0.00
2018-09-02T02:24:44.164Z,0.00
2018-09-02T02:25:44.159Z,0.00
2018-09-02T02:26:44.157Z,0.00
2018-09-02T02:27:44.156Z,0.00
2018-09-02T02:28:44.153Z,0.00
2018-09-02T02:29:44.151Z,0.00
2018-09-02T02:30:44.150Z,0.00
2018-09-02T02:31:44.147Z,0.00
2018-09-02T02:32:44.145Z,0.00
2018-09-02T02:33:44.144Z,0.00
2018-09-02T02:34:44.141Z,0.00
2018-09-02T02:35:44.139Z,0.00
2018-09-02T02:36:44.137Z,0.00
2018-09-02T02:37:44.135Z,0.00
2018-09-02T02:38:44.132Z,0.00
2018-09-02T02:39:44.132Z,0.00
2018-09-02T02:40:44.130Z,0.00
2018-09-02T02:41:44.127Z,0.00
2018-09-02T02:42:44.125Z,0.00
2018-09-02T02:43:44.126Z,0.00
2018-09-02T02:44:44.121Z,0.00
2018-09-02T02:45:44.118Z,0.00
2018-09-02T02:46:44.115Z,0.00
2018-09-02T02:47:44.115Z,0.00
2018-09-02T02:48:44.112Z,0.00
2018-09-02T02:49:44.109Z,0.00
2018-09-02T02:50:44.113Z,0.00
2018-09-02T02:51:44.107Z,0.00
2018-09-02T02:52:44.105Z,0.00
2018-09-02T02:53:44.100Z,0.00
2018-09-02T02:54:44.098Z,0.00
2018-09-02T02:55:44.098Z,0.00
2018-09-02T02:56:44.097Z,0.00
2018-09-02T02:57:44.093Z,0.00
2018-09-02T02:58:44.091Z,0.00
2018-09-02T02:59:44.091Z,0.00
2018-09-02T03:00:44.088Z,0.00
2018-09-02T03:01:44.083Z,0.00
2018-09-02T03:02:44.083Z,0.00
2018-09-02T03:03:44.082Z,0.00
2018-09-02T03:04:44.081Z,0.00
2018-09-02T03:05:44.079Z,0.00
2018-09-02T03:06:44.077Z,0.00
2018-09-02T03:07:44.072Z,0.00
2018-09-02T03:08:44.071Z,0.00
2018-09-02T03:09:44.069Z,0.00
2018-09-02T03:10:44.127Z,0.00
2018-09-02T03:11:44.064Z,0.00
2018-09-02T03:12:44.064Z,0.00
2018-09-02T03:13:44.061Z,0.00
2018-09-02T03:14:44.058Z,0.00
2018-09-02T03:15:44.056Z,0.00
2018-09-02T03:16:44.054Z,0.00
2018-09-02T03:17:44.052Z,0.00
2018-09-02T03:18:44.051Z,0.00
2018-09-02T03:19:44.049Z,0.00
2018-09-02T03:20:44.047Z,0.00
2018-09-02T03:21:44.044Z,0.00
2018-09-02T03:22:44.044Z,0.00
2018-09-02T03:23:44.041Z,0.00
2018-09-02T03:24:44.040Z,0.00
2018-09-02T03:25:44.036Z,0.00
2018-09-02T03:26:44.035Z,0.00
2018-09-02T03:27:44.032Z,0.00
2018-09-02T03:28:44.033Z,0.00
2018-09-02T03:29:44.027Z,0.00
2018-09-02T03:30:44.026Z,0.00
2018-09-02T03:31:44.025Z,0.00
2018-09-02T03:32:44.023Z,0.00
2018-09-02T03:33:44.023Z,0.00
2018-09-02T03:34:44.018Z,0.00
2018-09-02T03:35:44.016Z,0.00
2018-09-02T03:36:44.014Z,0.00
2018-09-02T03:37:44.011Z,0.00
2018-09-02T03:38:44.011Z,0.00
2018-09-02T03:39:44.008Z,0.00
2018-09-02T03:40:44.006Z,0.00
2018-09-02T03:41:44.002Z,0.00
2018-09-02T03:42:44.002Z,0.00
2018-09-02T03:43:43.999Z,0.00
2018-09-02T03:44:43.997Z,0.00
2018-09-02T03:45:43.994Z,0.00
2018-09-02T03:46:43.993Z,0.00
2018-09-02T03:47:43.992Z,0.00
2018-09-02T03:48:43.989Z,0.00
2018-09-02T03:49:43.988Z,0.00
2018-09-02T03:50:43.989Z,0.00
2018-09-02T03:51:43.982Z,0.00
2018-09-02T03:52:43.981Z,0.00
2018-09-02T03:53:43.983Z,0.00
2018-09-02T03:54:43.976Z,0.00
2018-09-02T03:55:43.974Z,0.00
2018-09-02T03:56:43.974Z,0.00
2018-09-02T03:57:43.970Z,0.00
2018-09-02T03:58:43.967Z,0.00
2018-09-02T03:59:43.967Z,0.00
2018-09-02T04:00:43.963Z,0.00
2018-09-02T04:01:43.962Z,0.00
2018-09-02T04:02:43.959Z,0.00
2018-09-02T04:03:43.957Z,0.00
2018-09-02T04:04:43.957Z,0.00
2018-09-02T04:05:43.953Z,0.00
2018-09-02T04:06:43.950Z,0.00
2018-09-02T04:07:43.949Z,0.00
2018-09-02T04:08:43.948Z,0.00
2018-09-02T04:09:43.943Z,0.00
2018-09-02T04:10:43.942Z,0.00
2018-09-02T04:11:43.941Z,0.00
2018-09-02T04:12:43.939Z,4.00
2018-09-02T04:13:43.937Z,4.00
2018-09-02T04:14:43.932Z,0.00
2018-09-02T04:15:43.933Z,4.00
2018-09-02T04:16:43.930Z,4.00
2018-09-02T04:17:43.927Z,4.00
2018-09-02T04:18:43.924Z,4.00
2018-09-02T04:19:43.923Z,8.00
2018-09-02T04:20:43.921Z,8.00
2018-09-02T04:21:43.917Z,12.00
2018-09-02T04:22:43.917Z,12.00
2018-09-02T04:23:43.914Z,12.00
2018-09-02T04:24:43.913Z,16.00
2018-09-02T04:25:43.914Z,16.00
2018-09-02T04:26:43.908Z,24.00
2018-09-02T04:27:43.906Z,24.00
2018-09-02T04:28:43.907Z,28.00
2018-09-02T04:29:43.901Z,32.00
2018-09-02T04:30:43.901Z,40.00
2018-09-02T04:31:43.900Z,40.00
2018-09-02T04:32:43.895Z,48.00
2018-09-02T04:33:43.912Z,52.00
2018-09-02T04:34:43.890Z,60.00
2018-09-02T04:35:43.888Z,68.00
2018-09-02T04:36:43.885Z,72.00
2018-09-02T04:37:43.886Z,84.00
2018-09-02T04:38:43.885Z,92.00
2018-09-02T04:39:43.880Z,96.00
2018-09-02T04:40:43.877Z,104.00
2018-09-02T04:41:43.874Z,116.00
2018-09-02T04:42:43.872Z,120.00
2018-09-02T04:43:43.869Z,124.00
2018-09-02T04:44:43.866Z,128.00
2018-09-02T04:45:43.864Z,136.00
2018-09-02T04:46:43.861Z,148.00
2018-09-02T04:47:43.861Z,156.00
2018-09-02T04:48:43.858Z,168.00
2018-09-02T04:49:43.855Z,180.00
2018-09-02T04:50:43.855Z,192.00
2018-09-02T04:51:43.852Z,212.00
2018-09-02T04:52:43.847Z,228.00
2018-09-02T04:53:43.844Z,244.00
2018-09-02T04:54:43.844Z,256.00
2018-09-02T04:55:43.842Z,268.00
2018-09-02T04:56:43.839Z,292.00
2018-09-02T04:57:43.836Z,316.00
2018-09-02T04:58:43.835Z,348.00
2018-09-02T04:59:43.836Z,372.00
2018-09-02T05:00:43.845Z,384.00
2018-09-02T05:01:43.830Z,392.00
2018-09-02T05:02:43.825Z,400.00
2018-09-02T05:03:43.824Z,400.00
2018-09-02T05:04:43.824Z,416.00
2018-09-02T05:05:43.818Z,428.00
2018-09-02T05:06:43.818Z,436.00
2018-09-02T05:07:43.816Z,444.00
2018-09-02T05:08:43.812Z,464.00
2018-09-02T05:09:43.809Z,492.00
2018-09-02T05:10:43.810Z,520.00
2018-09-02T05:11:43.806Z,556.00
2018-09-02T05:12:43.805Z,612.00
2018-09-02T05:13:43.801Z,688.00
2018-09-02T05:14:43.798Z,784.00
2018-09-02T05:15:43.796Z,888.00
2018-09-02T05:16:43.799Z,964.00
2018-09-02T05:17:43.794Z,1032.00
2018-09-02T05:18:43.790Z,1092.00
2018-09-02T05:19:43.789Z,1160.00
2018-09-02T05:20:43.788Z,1272.00
2018-09-02T05:21:43.785Z,1388.00
2018-09-02T05:22:43.787Z,1516.00
2018-09-02T05:23:43.781Z,1628.00
2018-09-02T05:24:43.780Z,1696.00
2018-09-02T05:25:43.777Z,1748.00
2018-09-02T05:26:43.775Z,1776.00
2018-09-02T05:27:43.775Z,1804.00
2018-09-02T05:28:43.772Z,1824.00
2018-09-02T05:29:43.769Z,1828.00
2018-09-02T05:30:43.769Z,1876.00
2018-09-02T05:31:43.764Z,1976.00
2018-09-02T05:32:43.765Z,2132.00
2018-09-02T05:33:43.761Z,2264.00
2018-09-02T05:34:43.759Z,2360.00
2018-09-02T05:35:43.759Z,2436.00
2018-09-02T05:36:43.789Z,2516.00
2018-09-02T05:37:43.754Z,2564.00
2018-09-02T05:38:43.752Z,2624.00
2018-09-02T05:39:43.751Z,2732.00
2018-09-02T05:40:43.749Z,2836.00
2018-09-02T05:41:43.746Z,2924.00
2018-09-02T05:42:43.749Z,2980.00
2018-09-02T05:43:43.744Z,3020.00
2018-09-02T05:44:43.747Z,3056.00
2018-09-02T05:45:43.740Z,3088.00
2018-09-02T05:46:43.739Z,3156.00
2018-09-02T05:47:43.738Z,3248.00
2018-09-02T05:48:43.738Z,3320.00
2018-09-02T05:49:43.734Z,3336.00
2018-09-02T05:50:43.732Z,3344.00
2018-09-02T05:51:43.732Z,3376.00
2018-09-02T05:52:43.731Z,3404.00
2018-09-02T05:53:43.727Z,3456.00
2018-09-02T05:54:43.725Z,3556.00
2018-09-02T05:55:43.726Z,3700.00
2018-09-02T05:56:43.723Z,3856.00
2018-09-02T05:57:43.816Z,4012.00
2018-09-02T05:58:43.720Z,4212.00
2018-09-02T05:59:43.719Z,4372.00
2018-09-02T06:00:43.716Z,4496.00
2018-09-02T06:01:43.715Z,4588.00
2018-09-02T06:02:43.726Z,4516.00
2018-09-02T06:03:43.713Z,4224.00
2018-09-02T06:04:43.712Z,3940.00
2018-09-02T06:05:43.710Z,3828.00
2018-09-02T06:06:43.708Z,3804.00
2018-09-02T06:07:43.709Z,3796.00
2018-09-02T06:08:43.705Z,3796.00
2018-09-02T06:09:43.704Z,3832.00
2018-09-02T06:10:43.701Z,3868.00
2018-09-02T06:11:43.702Z,3908.00
2018-09-02T06:12:43.700Z,3940.00
2018-09-02T06:13:43.697Z,3964.00
2018-09-02T06:14:43.697Z,3976.00
2018-09-02T06:15:43.696Z,3984.00
2018-09-02T06:16:43.693Z,3988.00
2018-09-02T06:17:43.693Z,4004.00
2018-09-02T06:18:43.691Z,4036.00
2018-09-02T06:19:43.690Z,4080.00
2018-09-02T06:20:43.691Z,4124.00
2018-09-02T06:21:43.686Z,4180.00
2018-09-02T06:22:43.685Z,4200.00
2018-09-02T06:23:43.684Z,4200.00
2018-09-02T06:24:43.684Z,4208.00
2018-09-02T06:25:43.682Z,4208.00
2018-09-02T06:26:43.732Z,4216.00
2018-09-02T06:27:43.683Z,4220.00
2018-09-02T06:28:43.679Z,4220.00
2018-09-02T06:29:43.680Z,4232.00
2018-09-02T06:30:43.676Z,4260.00
2018-09-02T06:31:43.676Z,4280.00
2018-09-02T06:32:43.729Z,4316.00
2018-09-02T06:33:43.675Z,4344.00
2018-09-02T06:34:43.672Z,4400.00
2018-09-02T06:35:43.673Z,4472.00
2018-09-02T06:36:43.670Z,4548.00
2018-09-02T06:37:43.668Z,4564.00
2018-09-02T06:38:43.666Z,4792.00
2018-09-02T06:39:43.667Z,4972.00
2018-09-02T06:40:43.665Z,5152.00
2018-09-02T06:41:43.662Z,5068.00
2018-09-02T06:42:43.664Z,5048.00
2018-09-02T06:43:43.661Z,5204.00
2018-09-02T06:44:43.661Z,5596.00
2018-09-02T06:45:43.704Z,5436.00
2018-09-02T06:46:43.658Z,5384.00
2018-09-02T06:47:43.658Z,5400.00
2018-09-02T06:48:43.657Z,5468.00
2018-09-02T06:49:43.656Z,5764.00
2018-09-02T06:50:43.654Z,5916.00
2018-09-02T06:51:43.655Z,6068.00
2018-09-02T06:52:43.654Z,6236.00
2018-09-02T06:53:43.656Z,6340.00
2018-09-02T06:54:43.653Z,6424.00
2018-09-02T06:55:43.651Z,6372.00
2018-09-02T06:56:43.650Z,6260.00
2018-09-02T06:57:43.649Z,6352.00
2018-09-02T06:58:43.676Z,6300.00
2018-09-02T06:59:43.651Z,6204.00
2018-09-02T07:00:43.649Z,6004.00
2018-09-02T07:01:43.648Z,5728.00
2018-09-02T07:02:43.648Z,5540.00
2018-09-02T07:03:43.648Z,5464.00
2018-09-02T07:04:43.646Z,5464.00
2018-09-02T07:05:43.646Z,5464.00
2018-09-02T07:06:43.741Z,5440.00
2018-09-02T07:07:43.645Z,5400.00
2018-09-02T07:08:43.646Z,5384.00
2018-09-02T07:09:43.644Z,5368.00
2018-09-02T07:10:43.644Z,5352.00
2018-09-02T07:11:43.644Z,5352.00
2018-09-02T07:12:43.644Z,5360.00
2018-09-02T07:13:43.643Z,5392.00
2018-09-02T07:14:43.642Z,5412.00
2018-09-02T07:15:43.642Z,5420.00
2018-09-02T07:16:43.642Z,5436.00
2018-09-02T07:17:43.641Z,5472.00
2018-09-02T07:18:43.642Z,5496.00
2018-09-02T07:19:43.643Z,5528.00
2018-09-02T07:20:43.641Z,5540.00
2018-09-02T07:21:43.641Z,5544.00
2018-09-02T07:22:43.642Z,5544.00
2018-09-02T07:23:43.641Z,5532.00
2018-09-02T07:24:43.642Z,5528.00
2018-09-02T07:25:43.640Z,5528.00
2018-09-02T07:26:43.640Z,5528.00
2018-09-02T07:27:43.641Z,5516.00
2018-09-02T07:28:43.641Z,5508.00
2018-09-02T07:29:43.641Z,5528.00
2018-09-02T07:30:43.639Z,5536.00
2018-09-02T07:31:43.640Z,5560.00
2018-09-02T07:32:43.641Z,5568.00
2018-09-02T07:33:43.639Z,5540.00
2018-09-02T07:34:43.641Z,5564.00
2018-09-02T07:35:43.641Z,5572.00
2018-09-02T07:36:43.642Z,5596.00
2018-09-02T07:37:43.640Z,5612.00
2018-09-02T07:38:43.640Z,5636.00
2018-09-02T07:39:43.642Z,5644.00
2018-09-02T07:40:43.641Z,5672.00
2018-09-02T07:41:43.642Z,5684.00
2018-09-02T07:42:43.642Z,5716.00
2018-09-02T07:43:43.711Z,5788.00
2018-09-02T07:44:43.644Z,5816.00
2018-09-02T07:45:43.641Z,5848.00
2018-09-02T07:46:43.643Z,5912.00
2018-09-02T07:47:43.644Z,5956.00
2018-09-02T07:48:43.644Z,6044.00
2018-09-02T07:49:43.644Z,6096.00
2018-09-02T07:50:43.644Z,6192.00
2018-09-02T07:51:43.646Z,6240.00
2018-09-02T07:52:43.646Z,6276.00
2018-09-02T07:53:43.644Z,6324.00
2018-09-02T07:54:43.647Z,6344.00
2018-09-02T07:55:43.648Z,6388.00
2018-09-02T07:56:43.648Z,6412.00
2018-09-02T07:57:43.647Z,6448.00
2018-09-02T07:58:43.648Z,6488.00
2018-09-02T07:59:43.648Z,6512.00
2018-09-02T08:00:43.650Z,6552.00
2018-09-02T08:01:43.649Z,6560.00
2018-09-02T08:02:43.736Z,6596.00
2018-09-02T08:03:43.655Z,6616.00
2018-09-02T08:04:43.653Z,6656.00
2018-09-02T08:05:43.653Z,6660.00
2018-09-02T08:06:43.653Z,6692.00
2018-09-02T08:07:43.658Z,6724.00
2018-09-02T08:08:43.654Z,6780.00
2018-09-02T08:09:43.655Z,6780.00
2018-09-02T08:10:43.657Z,6780.00
2018-09-02T08:11:43.662Z,6816.00
2018-09-02T08:12:43.868Z,6820.00
2018-09-02T08:13:43.658Z,6928.00
2018-09-02T08:14:43.662Z,6892.00
2018-09-02T08:15:43.661Z,6892.00
2018-09-02T08:16:43.663Z,6892.00
2018-09-02T08:17:43.664Z,6904.00
2018-09-02T08:18:43.665Z,6932.00
2018-09-02T08:19:43.695Z,6948.00
2018-09-02T08:20:43.669Z,6952.00
2018-09-02T08:21:43.667Z,6996.00
2018-09-02T08:22:43.668Z,7004.00
2018-09-02T08:23:43.670Z,7040.00
2018-09-02T08:24:43.672Z,7064.00
2018-09-02T08:25:43.673Z,7116.00
2018-09-02T08:26:43.777Z,7148.00
2018-09-02T08:27:43.676Z,7208.00
2018-09-02T08:28:43.676Z,7288.00
2018-09-02T08:29:43.679Z,10540.00
2018-09-02T08:30:43.679Z,41280.00
2018-09-02T08:31:43.681Z,72128.00
2018-09-02T08:32:43.683Z,77664.00
2018-09-02T08:33:43.683Z,78272.00
2018-09-02T08:34:43.686Z,77696.00
2018-09-02T08:35:43.689Z,78016.00
2018-09-02T08:36:43.693Z,79200.00
2018-09-02T08:37:43.695Z,80512.00
2018-09-02T08:38:43.740Z,81408.00
2018-09-02T08:39:43.704Z,78368.00
2018-09-02T08:40:43.710Z,79840.00
2018-09-02T08:41:43.714Z,80640.00
2018-09-02T08:42:43.723Z,80224.00
2018-09-02T08:43:43.726Z,79808.00
2018-09-02T08:44:43.733Z,79200.00
2018-09-02T08:45:43.740Z,79456.00
2018-09-02T08:46:43.746Z,82592.00
2018-09-02T08:47:43.754Z,77856.00
2018-09-02T08:48:43.763Z,73312.00
2018-09-02T08:49:43.770Z,72320.00
2018-09-02T08:50:43.780Z,72448.00
2018-09-02T08:51:43.790Z,74592.00
2018-09-02T08:52:43.800Z,78336.00
2018-09-02T08:53:43.808Z,77856.00
2018-09-02T08:54:43.819Z,75680.00
2018-09-02T08:55:43.828Z,76960.00
2018-09-02T08:56:43.840Z,78208.00
2018-09-02T08:57:43.849Z,77824.00
2018-09-02T08:58:43.861Z,77088.00
2018-09-02T08:59:43.873Z,77952.00
2018-09-02T09:00:43.884Z,76320.00
2018-09-02T09:01:43.901Z,76672.00
2018-09-02T09:02:43.907Z,76992.00
2018-09-02T09:03:43.919Z,68288.00
2018-09-02T09:04:43.932Z,45504.00
2018-09-02T09:05:43.944Z,30528.00
2018-09-02T09:06:43.958Z,27744.00
2018-09-02T09:07:44.052Z,27680.00
2018-09-02T09:08:44.182Z,27552.00
2018-09-02T09:09:43.997Z,27904.00
2018-09-02T09:10:44.009Z,28000.00
2018-09-02T09:11:44.023Z,27968.00
2018-09-02T09:12:44.041Z,28064.00
2018-09-02T09:13:44.052Z,28224.00
2018-09-02T09:14:44.064Z,28288.00
2018-09-02T09:15:44.079Z,28512.00
2018-09-02T09:16:44.235Z,28512.00
2018-09-02T09:17:44.110Z,28704.00
2018-09-02T09:18:44.121Z,28704.00
2018-09-02T09:19:44.136Z,28704.00
2018-09-02T09:20:44.151Z,28896.00
2018-09-02T09:21:44.286Z,28768.00
2018-09-02T09:22:44.223Z,28864.00
2018-09-02T09:23:44.195Z,28768.00
2018-09-02T09:24:44.211Z,28768.00
2018-09-02T09:25:44.225Z,28672.00
2018-09-02T09:26:44.243Z,28608.00
2018-09-02T09:27:44.258Z,28576.00
2018-09-02T09:28:44.271Z,28480.00
2018-09-02T09:29:44.285Z,28512.00
2018-09-02T09:30:44.299Z,28640.00
2018-09-02T09:31:44.315Z,29504.00
2018-09-02T09:32:44.331Z,30304.00
2018-09-02T09:33:44.345Z,31488.00
2018-09-02T09:34:44.358Z,32128.00
2018-09-02T09:35:44.376Z,34080.00
2018-09-02T09:36:44.392Z,39872.00
2018-09-02T09:37:44.405Z,44128.00
2018-09-02T09:38:44.420Z,44096.00
2018-09-02T09:39:44.436Z,46016.00
2018-09-02T09:40:44.452Z,45408.00
2018-09-02T09:41:44.467Z,44224.00
2018-09-02T09:42:44.483Z,42240.00
2018-09-02T09:43:44.497Z,39520.00
2018-09-02T09:44:44.514Z,36896.00
2018-09-02T09:45:44.528Z,36192.00
2018-09-02T09:46:44.543Z,36384.00
2018-09-02T09:47:44.560Z,36224.00
2018-09-02T09:48:44.574Z,33760.00
2018-09-02T09:49:44.589Z,33024.00
2018-09-02T09:50:44.605Z,34784.00
2018-09-02T09:51:44.620Z,33760.00
2018-09-02T09:52:44.637Z,32544.00
2018-09-02T09:53:44.651Z,31488.00
2018-09-02T09:54:44.667Z,31232.00
2018-09-02T09:55:44.777Z,31904.00
2018-09-02T09:56:44.698Z,31680.00
2018-09-02T09:57:44.710Z,30208.00
2018-09-02T09:58:44.728Z,29472.00
2018-09-02T09:59:44.743Z,31360.00
2018-09-02T10:00:44.758Z,30080.00
2018-09-02T10:01:44.773Z,29952.00
2018-09-02T10:02:44.789Z,30944.00
2018-09-02T10:03:44.861Z,31008.00
2018-09-02T10:04:44.818Z,30592.00
2018-09-02T10:05:44.841Z,32640.00
2018-09-02T10:06:44.853Z,34784.00
2018-09-02T10:07:44.870Z,34272.00
2018-09-02T10:08:44.880Z,32128.00
2018-09-02T10:09:44.895Z,31008.00
2018-09-02T10:10:44.909Z,31744.00
2018-09-02T10:11:44.939Z,31296.00
2018-09-02T10:12:44.941Z,29696.00
2018-09-02T10:13:44.955Z,29952.00
2018-09-02T10:14:44.970Z,30976.00
2018-09-02T10:15:44.985Z,33088.00
2018-09-02T10:16:45.001Z,35392.00
2018-09-02T10:17:45.016Z,39008.00
2018-09-02T10:18:45.031Z,40000.00
2018-09-02T10:19:45.045Z,41088.00
2018-09-02T10:20:45.061Z,42944.00
2018-09-02T10:21:45.075Z,41792.00
2018-09-02T10:22:45.089Z,5512.00
2018-09-02T10:23:45.103Z,6492.00
2018-09-02T10:24:45.119Z,57536.00
2018-09-02T10:25:45.132Z,64000.00
2018-09-02T10:26:45.146Z,65536.00
2018-09-02T10:27:45.159Z,61824.00
2018-09-02T10:28:45.173Z,59520.00
2018-09-02T10:29:45.187Z,54400.00
2018-09-02T10:30:45.202Z,45632.00
2018-09-02T10:31:45.216Z,38848.00
2018-09-02T10:32:45.229Z,35264.00
2018-09-02T10:33:45.243Z,33216.00
2018-09-02T10:34:45.256Z,32832.00
2018-09-02T10:35:45.274Z,31904.00
2018-09-02T10:36:45.284Z,29920.00
2018-09-02T10:37:45.298Z,26272.00
2018-09-02T10:38:45.312Z,21824.00
2018-09-02T10:39:45.324Z,16928.00
2018-09-02T10:40:45.340Z,10272.00
2018-09-02T10:41:45.352Z,14452.00
2018-09-02T10:42:45.365Z,12508.00
2018-09-02T10:43:45.380Z,13188.00
2018-09-02T10:44:45.393Z,9080.00
2018-09-02T10:45:45.405Z,9836.00
2018-09-02T10:46:45.419Z,9152.00
2018-09-02T10:47:45.432Z,8980.00
2018-09-02T10:48:45.445Z,8916.00
2018-09-02T10:49:45.546Z,8848.00
2018-09-02T10:50:45.476Z,8896.00
2018-09-02T10:51:45.483Z,8716.00
2018-09-02T10:52:45.494Z,9512.00
2018-09-02T10:53:45.505Z,10028.00
2018-09-02T10:54:45.518Z,11156.00
2018-09-02T10:55:45.530Z,10024.00
2018-09-02T10:56:45.542Z,9604.00
2018-09-02T10:57:45.551Z,9332.00
2018-09-02T10:58:45.562Z,9824.00
2018-09-02T10:59:45.657Z,9856.00
2018-09-02T11:00:45.589Z,8304.00
2018-09-02T11:01:45.594Z,7512.00
2018-09-02T11:02:45.605Z,8148.00
2018-09-02T11:03:45.615Z,7552.00
2018-09-02T11:04:45.625Z,7776.00
2018-09-02T11:05:45.634Z,7888.00
2018-09-02T11:06:45.646Z,8096.00
2018-09-02T11:07:45.697Z,8176.00
2018-09-02T11:08:45.723Z,8116.00
2018-09-02T11:09:45.673Z,7648.00
2018-09-02T11:10:45.682Z,7832.00
2018-09-02T11:11:45.692Z,7660.00
2018-09-02T11:12:45.700Z,7548.00
2018-09-02T11:13:45.758Z,7532.00
2018-09-02T11:14:45.717Z,7456.00
2018-09-02T11:15:45.727Z,7392.00
2018-09-02T11:16:45.738Z,7200.00
2018-09-02T11:17:45.742Z,7360.00
2018-09-02T11:18:45.751Z,7428.00
2018-09-02T11:19:45.764Z,7284.00
2018-09-02T11:20:45.768Z,6936.00
2018-09-02T11:21:45.775Z,6676.00
2018-09-02T11:22:45.785Z,6584.00
2018-09-02T11:23:45.794Z,6628.00
2018-09-02T11:24:45.799Z,6628.00
2018-09-02T11:25:45.807Z,6672.00
2018-09-02T11:26:45.814Z,6720.00
2018-09-02T11:27:45.822Z,6780.00
2018-09-02T11:28:45.829Z,6884.00
2018-09-02T11:31:49.214Z,7056.00
2018-09-02T11:32:49.223Z,7024.00
2018-09-02T11:33:49.226Z,6904.00
2018-09-02T11:34:49.232Z,6548.00
2018-09-02T11:35:49.240Z,4736.00
2018-09-02T11:36:49.245Z,4280.00
2018-09-02T11:37:49.253Z,6368.00
2018-09-02T11:38:49.259Z,6492.00
2018-09-02T11:39:49.265Z,6740.00
2018-09-02T11:40:49.272Z,6936.00
2018-09-02T11:41:49.278Z,6976.00
2018-09-02T11:42:49.283Z,6812.00
2018-09-02T11:43:49.290Z,6596.00
2018-09-02T11:44:49.296Z,6304.00
2018-09-02T11:45:49.302Z,6176.00
2018-09-02T11:46:49.317Z,6076.00
2018-09-02T11:47:49.314Z,6008.00
2018-09-02T11:48:49.324Z,5948.00
2018-09-02T11:49:49.344Z,5928.00
2018-09-02T11:50:49.330Z,5904.00
2018-09-02T11:51:49.364Z,5868.00
2018-09-02T11:52:49.344Z,5796.00
2018-09-02T11:53:49.360Z,5740.00
2018-09-02T11:54:49.355Z,5692.00
2018-09-02T11:55:49.361Z,5712.00
2018-09-02T11:56:49.380Z,5704.00
2018-09-02T11:57:49.486Z,5644.00
2018-09-02T11:58:49.380Z,5608.00
2018-09-02T11:59:49.383Z,5604.00
2018-09-02T12:00:49.402Z,5648.00
2018-09-02T12:01:49.395Z,5600.00
2018-09-02T12:02:49.401Z,5612.00
2018-09-02T12:03:49.454Z,5592.00
2018-09-02T12:04:49.421Z,5560.00
2018-09-02T12:05:49.418Z,5552.00
2018-09-02T12:06:49.421Z,5560.00
2018-09-02T12:07:49.427Z,5584.00
2018-09-02T12:08:49.432Z,5568.00
2018-09-02T12:09:49.438Z,5556.00
2018-09-02T12:10:49.443Z,5500.00
2018-09-02T12:11:49.472Z,5472.00
2018-09-02T12:12:49.453Z,5460.00
2018-09-02T12:13:49.461Z,5436.00
2018-09-02T12:14:49.465Z,5420.00
2018-09-02T12:15:49.470Z,5420.00
2018-09-02T12:16:49.475Z,5412.00
2018-09-02T12:17:49.481Z,5440.00
2018-09-02T12:18:49.485Z,5404.00
2018-09-02T12:19:49.492Z,5404.00
2018-09-02T12:20:49.498Z,5416.00
2018-09-02T12:21:49.507Z,5356.00
2018-09-02T12:22:49.507Z,5392.00
2018-09-02T12:23:49.514Z,5328.00
2018-09-02T12:24:49.519Z,5308.00
2018-09-02T12:25:49.525Z,5304.00
2018-09-02T12:26:49.528Z,5300.00
2018-09-02T12:27:49.534Z,5268.00
2018-09-02T12:28:49.539Z,5248.00
2018-09-02T12:29:49.545Z,5228.00